createdAt,value
2018-04-23T04:07:53.388Z,15.30
2018-04-23T04:35:29.339Z,15.50
2018-04-23T04:41:33.515Z,15.50
2018-04-23T04:47:40.589Z,15.60
2018-04-23T04:50:10.871Z,15.50
2018-04-23T04:53:14.045Z,15.50
2018-04-23T04:58:35.888Z,15.80
2018-04-23T05:04:35.352Z,15.80
2018-04-23T05:07:05.183Z,16.00
2018-04-23T05:09:33.838Z,15.90
2018-04-23T05:12:02.664Z,16.10
2018-04-23T05:14:31.496Z,16.30
2018-04-23T05:17:01.266Z,16.50
2018-04-23T05:19:30.142Z,16.50
2018-04-23T05:21:59.053Z,16.60
2018-04-23T05:24:27.837Z,16.90
2018-04-23T05:27:00.337Z,17.10
2018-04-23T05:29:29.262Z,17.10
2018-04-23T05:31:59.107Z,17.10
2018-04-23T05:34:28.644Z,17.10
2018-04-23T05:36:57.837Z,17.10
2018-04-23T05:39:26.772Z,17.10
2018-04-23T05:41:55.674Z,17.20
2018-04-23T05:44:46.124Z,17.30
2018-04-23T05:47:16.685Z,17.20
2018-04-23T05:49:45.520Z,17.10
2018-04-23T05:52:14.326Z,17.00
2018-04-23T05:54:46.036Z,17.20
2018-04-23T05:57:15.760Z,18.90
2018-04-23T05:59:45.559Z,20.00
2018-04-23T06:02:15.424Z,20.70
2018-04-23T06:04:43.970Z,20.70
2018-04-23T06:07:13.343Z,20.90
2018-04-23T06:09:42.157Z,20.90
2018-04-23T06:12:11.761Z,21.70
2018-04-23T06:14:41.543Z,21.70
2018-04-23T06:17:10.390Z,21.70
2018-04-23T06:19:39.300Z,22.60
2018-04-23T06:22:09.052Z,22.70
2018-04-23T06:24:37.856Z,22.70
2018-04-23T06:27:07.701Z,22.80
2018-04-23T06:29:36.540Z,22.70
2018-04-23T06:32:05.804Z,23.00
2018-04-23T06:34:34.495Z,23.60
2018-04-23T06:37:03.244Z,24.10
2018-04-23T06:39:32.880Z,23.80
2018-04-23T06:42:01.677Z,23.80
2018-04-23T06:44:30.509Z,23.80
2018-04-23T06:46:59.346Z,24.20
2018-04-23T06:49:28.028Z,24.70
2018-04-23T06:51:57.139Z,24.60
2018-04-23T06:54:25.838Z,25.00
2018-04-23T06:56:54.622Z,24.80
2018-04-23T06:59:22.887Z,25.20
2018-04-23T07:01:51.458Z,25.50
2018-04-23T07:04:20.316Z,26.30
2018-04-23T07:06:49.128Z,26.40
2018-04-23T07:09:17.856Z,26.60
2018-04-23T07:11:47.041Z,26.70
2018-04-23T07:14:15.689Z,26.80
2018-04-23T07:16:44.492Z,26.70
2018-04-23T07:19:14.597Z,26.80
2018-04-23T07:21:43.197Z,26.70
2018-04-23T07:24:12.828Z,27.70
2018-04-23T07:26:41.588Z,27.70
2018-04-23T07:29:11.427Z,29.60
2018-04-23T07:31:40.239Z,29.60
2018-04-23T07:34:09.365Z,30.50
2018-04-23T07:36:38.928Z,31.40
2018-04-23T07:39:07.799Z,31.40
2018-04-23T07:41:37.588Z,33.40
2018-04-23T07:44:06.420Z,33.40
2018-04-23T07:46:35.319Z,34.60
2018-04-23T07:49:04.100Z,34.20
2018-04-23T07:51:32.906Z,34.10
2018-04-23T07:54:01.702Z,34.70
2018-04-23T07:56:30.524Z,35.90
2018-04-23T07:58:59.372Z,35.80
2018-04-23T08:01:28.178Z,35.60
2018-04-23T08:03:57.140Z,36.00
2018-04-23T08:06:26.145Z,36.00
2018-04-23T08:08:54.957Z,37.20
2018-04-23T08:11:23.767Z,37.00
2018-04-23T08:13:52.530Z,37.10
2018-04-23T08:16:21.327Z,37.20
2018-04-23T08:18:50.072Z,37.50
2018-04-23T08:21:19.808Z,38.30
2018-04-23T08:23:48.628Z,38.20
2018-04-23T08:26:17.450Z,37.40
2018-04-23T08:28:47.293Z,37.30
2018-04-23T08:31:16.116Z,37.30
2018-04-23T08:33:44.997Z,37.90
2018-04-23T08:36:13.962Z,38.00
2018-04-23T08:38:42.671Z,37.90
2018-04-23T08:41:12.144Z,38.10
2018-04-23T08:43:41.543Z,38.60
2018-04-23T08:46:11.656Z,38.70
2018-04-23T08:48:40.204Z,38.70
2018-04-23T08:51:09.607Z,38.90
2018-04-23T08:53:38.601Z,38.50
2018-04-23T08:56:08.416Z,38.40
2018-04-23T08:58:37.335Z,38.70
2018-04-23T09:01:06.706Z,38.80
2018-04-23T09:03:36.160Z,39.30
2018-04-23T09:06:04.723Z,39.30
2018-04-23T09:08:33.541Z,39.20
2018-04-23T09:11:03.381Z,39.90
2018-04-23T09:13:32.219Z,39.90
2018-04-23T09:16:01.036Z,39.80
2018-04-23T09:18:31.206Z,37.60
2018-04-23T09:20:59.977Z,37.60
2018-04-23T09:23:28.767Z,37.10
2018-04-23T09:25:57.521Z,36.60
2018-04-23T09:28:27.164Z,38.10
2018-04-23T09:30:56.229Z,38.00
2018-04-23T09:33:25.816Z,39.20
2018-04-23T09:35:54.646Z,39.10
2018-04-23T09:38:23.549Z,39.20
2018-04-23T09:40:52.355Z,39.40
2018-04-23T09:43:21.867Z,40.10
2018-04-23T09:45:50.968Z,40.40
2018-04-23T09:48:19.844Z,41.10
2018-04-23T09:50:48.641Z,40.30
2018-04-23T09:53:17.436Z,39.90
2018-04-23T09:55:46.278Z,39.80
2018-04-23T09:58:16.091Z,40.10
2018-04-23T10:00:45.938Z,40.20
2018-04-23T10:03:15.116Z,40.50
2018-04-23T10:05:43.861Z,40.50
2018-04-23T10:08:12.726Z,41.00
2018-04-23T10:10:41.500Z,40.30
2018-04-23T10:13:10.357Z,39.40
2018-04-23T10:15:40.507Z,41.00
2018-04-23T10:18:09.063Z,41.00
2018-04-23T10:20:38.722Z,39.90
2018-04-23T10:23:07.576Z,39.90
2018-04-23T10:25:36.479Z,40.60
2018-04-23T10:28:06.043Z,40.20
2018-04-23T10:30:34.987Z,40.20
2018-04-23T10:33:03.864Z,40.40
2018-04-23T10:35:33.512Z,41.10
2018-04-23T10:38:03.352Z,40.50
2018-04-23T10:40:32.458Z,40.40
2018-04-23T10:43:01.838Z,39.70
2018-04-23T10:45:30.883Z,39.30
2018-04-23T10:47:59.834Z,39.50
2018-04-23T10:50:28.600Z,39.90
2018-04-23T10:52:57.443Z,40.60
2018-04-23T10:55:26.397Z,40.30
2018-04-23T10:57:55.103Z,39.20
2018-04-23T11:00:23.926Z,36.80
2018-04-23T11:02:54.070Z,32.70
2018-04-23T11:05:22.716Z,32.60
2018-04-23T11:07:51.537Z,31.50
2018-04-23T11:10:21.630Z,30.90
2018-04-23T11:12:50.189Z,30.90
2018-04-23T11:15:18.931Z,30.30
2018-04-23T11:17:48.572Z,28.60
2018-04-23T11:20:17.072Z,28.50
2018-04-23T11:22:45.544Z,28.00
2018-04-23T11:25:14.114Z,27.30
2018-04-23T11:27:42.603Z,26.60
2018-04-23T11:30:11.114Z,26.30
2018-04-23T11:32:39.616Z,26.00
2018-04-23T11:35:09.357Z,26.20
2018-04-23T11:37:37.852Z,26.30
2018-04-23T11:40:07.154Z,26.70
2018-04-23T11:42:35.909Z,26.70
2018-04-23T11:45:05.692Z,25.40
2018-04-23T11:47:34.568Z,25.30
2018-04-23T11:50:03.360Z,25.60
2018-04-23T11:52:32.140Z,25.90
2018-04-23T11:55:01.001Z,26.60
2018-04-23T11:57:29.558Z,27.10
2018-04-23T11:59:58.873Z,30.30
2018-04-23T12:02:28.610Z,31.30
2018-04-23T12:04:57.384Z,31.20
2018-04-23T12:07:27.121Z,32.00
2018-04-23T12:09:55.928Z,31.90
2018-04-23T12:12:24.752Z,31.70
2018-04-23T12:14:53.568Z,31.20
2018-04-23T12:17:22.389Z,30.50
2018-04-23T12:19:51.204Z,30.30
2018-04-23T12:22:20.048Z,30.10
2018-04-23T12:24:48.858Z,30.00
2018-04-23T12:27:18.512Z,29.60
2018-04-23T12:29:48.533Z,28.30
2018-04-23T12:32:23.044Z,28.00
2018-04-23T12:34:52.618Z,28.00
2018-04-23T12:37:23.840Z,27.70
2018-04-23T12:39:54.258Z,28.20
2018-04-23T12:42:23.079Z,28.20
2018-04-23T12:44:51.891Z,28.50
2018-04-23T12:47:20.655Z,28.50
2018-04-23T12:49:49.455Z,28.50
2018-04-23T12:52:18.301Z,27.60
2018-04-23T12:54:48.010Z,27.30
2018-04-23T12:57:17.738Z,27.50
2018-04-23T12:59:46.655Z,27.40
2018-04-23T13:02:15.547Z,27.50
2018-04-23T13:04:44.313Z,27.40
2018-04-23T13:07:13.219Z,27.30
2018-04-23T13:09:42.028Z,26.80
2018-04-23T13:12:11.656Z,25.90
2018-04-23T13:14:40.630Z,25.90
2018-04-23T13:17:09.530Z,25.80
2018-04-23T13:19:38.303Z,25.60
2018-04-23T13:22:06.938Z,25.40
2018-04-23T13:24:35.777Z,25.40
2018-04-23T13:27:05.216Z,25.40
2018-04-23T13:29:33.771Z,25.30
2018-04-23T13:32:02.501Z,25.20
2018-04-23T13:34:31.312Z,25.20
2018-04-23T13:37:00.884Z,25.20
2018-04-23T13:39:29.697Z,25.20
2018-04-23T13:42:01.164Z,24.90
2018-04-23T13:44:30.398Z,24.50
2018-04-23T13:46:59.850Z,24.40
2018-04-23T13:49:29.329Z,24.30
2018-04-23T13:51:58.185Z,24.30
2018-04-23T13:54:27.701Z,24.10
2018-04-23T13:56:57.535Z,24.00
2018-04-23T13:59:26.495Z,23.90
2018-04-23T14:01:55.288Z,24.00
2018-04-23T14:04:24.283Z,24.30
2018-04-23T14:06:53.185Z,24.80
2018-04-23T14:09:22.648Z,25.10
2018-04-23T14:11:52.173Z,25.40
2018-04-23T14:14:21.620Z,26.00
2018-04-23T14:16:50.937Z,25.90
2018-04-23T14:19:20.119Z,26.30
2018-04-23T14:21:50.569Z,26.70
2018-04-23T14:27:12.013Z,27.20
2018-04-23T14:29:41.712Z,27.40
2018-04-23T14:32:11.307Z,27.40
2018-04-23T14:34:42.052Z,27.50
2018-04-23T14:37:11.067Z,27.20
2018-04-23T14:39:49.180Z,26.50
2018-04-23T14:49:38.371Z,25.30
2018-04-23T15:06:34.831Z,24.10
2018-04-23T15:51:17.330Z,22.70
2018-04-23T15:54:04.327Z,22.40
2018-04-23T15:56:37.359Z,22.40
2018-04-23T16:08:48.084Z,21.80
2018-04-23T16:11:17.497Z,21.80
2018-04-23T16:13:48.710Z,21.70
2018-04-23T16:16:17.864Z,21.70
2018-04-23T16:18:46.856Z,21.60
2018-04-23T16:21:16.520Z,21.30
2018-04-23T16:24:11.656Z,21.20
2018-04-23T16:26:47.793Z,20.80
2018-04-23T16:29:22.647Z,20.70
2018-04-23T16:31:59.484Z,20.50
2018-04-23T16:34:29.387Z,20.30
2018-04-23T16:36:59.072Z,19.90
2018-04-23T16:51:04.376Z,19.00
2018-04-23T16:53:33.333Z,18.70
2018-04-23T16:56:19.555Z,18.30
2018-04-23T17:12:46.348Z,18.10
2018-04-23T17:15:15.243Z,18.00
2018-04-23T17:17:44.141Z,17.90
2018-04-23T17:20:13.828Z,17.80
2018-04-23T17:22:42.756Z,17.80
2018-04-23T17:25:11.638Z,17.70
2018-04-23T17:27:41.191Z,17.50
2018-04-23T17:30:13.461Z,17.40
2018-04-23T17:32:42.348Z,17.10
2018-04-23T17:35:11.062Z,17.10
2018-04-23T17:37:39.909Z,17.00
2018-04-23T17:40:11.004Z,16.60
2018-04-23T17:42:40.683Z,16.60
2018-04-23T17:45:09.491Z,16.60
2018-04-23T17:47:43.781Z,16.40
2018-04-23T17:50:19.333Z,16.40
2018-04-23T17:53:15.417Z,16.40
2018-04-23T17:58:58.256Z,16.40
2018-04-23T18:01:27.386Z,16.40
2018-04-23T18:03:56.461Z,16.40
2018-04-23T18:06:25.695Z,16.40
2018-04-23T18:08:55.732Z,16.10
2018-04-23T18:11:24.701Z,16.00
2018-04-23T18:13:53.330Z,16.00
2018-04-23T18:16:24.066Z,16.00
2018-04-23T18:18:53.282Z,15.90
2018-04-23T18:21:22.670Z,15.80
2018-04-23T18:23:52.575Z,15.60
2018-04-23T18:27:13.931Z,15.60
2018-04-23T18:29:43.362Z,15.80
2018-04-23T18:32:13.113Z,15.80
2018-04-23T18:34:41.890Z,16.20
2018-04-23T18:37:10.526Z,16.40
2018-04-23T18:39:39.331Z,16.50
2018-04-23T18:42:08.815Z,16.50
2018-04-23T18:44:40.718Z,16.60
2018-04-23T18:47:10.599Z,16.50
2018-04-23T18:49:39.783Z,16.40
2018-04-23T18:52:09.191Z,16.50
2018-04-23T18:54:39.035Z,16.50
2018-04-23T18:57:07.816Z,16.60
2018-04-23T18:59:37.926Z,16.70
2018-04-23T19:02:07.768Z,16.70
2018-04-23T19:04:37.475Z,16.70
2018-04-23T19:07:06.403Z,16.70
2018-04-23T19:09:35.266Z,16.80
2018-04-23T19:12:04.071Z,16.90
2018-04-23T19:14:32.817Z,16.90
2018-04-23T19:17:01.608Z,16.90
2018-04-23T19:19:30.369Z,16.80
2018-04-23T19:22:00.037Z,16.70
2018-04-23T19:24:29.105Z,16.70
2018-04-23T19:26:57.613Z,16.50
2018-04-23T19:29:26.621Z,16.50
2018-04-23T19:31:55.515Z,16.40
2018-04-23T19:34:27.177Z,16.10
2018-04-23T19:36:57.146Z,15.90
2018-04-23T19:39:37.871Z,15.60
2018-04-23T19:42:15.068Z,15.30
